sensor_id;sensor_type;location;lat;lon;timestamp;temperature;humidity
8824;DHT22;4448;50.904;4.694;2023-04-25T00:01:48;11.00;99.90
8824;DHT22;4448;50.904;4.694;2023-04-25T00:04:14;11.00;99.90
8824;DHT22;4448;50.904;4.694;2023-04-25T00:06:39;11.00;99.90
8824;DHT22;4448;50.904;4.694;2023-04-25T00:09:06;11.00;99.90
8824;DHT22;4448;50.904;4.694;2023-04-25T00:11:36;11.00;99.90
8824;DHT22;4448;50.904;4.694;2023-04-25T00:14:03;11.00;99.90
8824;DHT22;4448;50.904;4.694;2023-04-25T00:16:29;11.00;99.90
8824;DHT22;4448;50.904;4.694;2023-04-25T00:18:59;11.00;99.90
8824;DHT22;4448;50.904;4.694;2023-04-25T00:21:24;11.00;99.90
8824;DHT22;4448;50.904;4.694;2023-04-25T00:23:52;11.00;99.90
8824;DHT22;4448;50.904;4.694;2023-04-25T00:26:18;11.00;99.90
8824;DHT22;4448;50.904;4.694;2023-04-25T00:28:44;11.00;99.90
8824;DHT22;4448;50.904;4.694;2023-04-25T00:31:10;11.00;99.90
8824;DHT22;4448;50.904;4.694;2023-04-25T00:33:36;11.00;99.90
8824;DHT22;4448;50.904;4.694;2023-04-25T00:36:01;11.00;99.90
8824;DHT22;4448;50.904;4.694;2023-04-25T00:38:27;11.00;99.90
8824;DHT22;4448;50.904;4.694;2023-04-25T00:40:53;11.00;99.90
8824;DHT22;4448;50.904;4.694;2023-04-25T00:43:19;11.00;99.90
8824;DHT22;4448;50.904;4.694;2023-04-25T00:45:47;11.00;99.90
8824;DHT22;4448;50.904;4.694;2023-04-25T00:48:14;11.00;99.90
8824;DHT22;4448;50.904;4.694;2023-04-25T00:50:40;11.00;99.90
8824;DHT22;4448;50.904;4.694;2023-04-25T00:53:06;11.00;99.90
8824;DHT22;4448;50.904;4.694;2023-04-25T00:55:33;11.00;99.90
8824;DHT22;4448;50.904;4.694;2023-04-25T00:58:00;11.00;99.90
8824;DHT22;4448;50.904;4.694;2023-04-25T01:00:26;11.00;99.90
8824;DHT22;4448;50.904;4.694;2023-04-25T01:02:52;11.00;99.90
8824;DHT22;4448;50.904;4.694;2023-04-25T01:05:18;11.00;99.90
8824;DHT22;4448;50.904;4.694;2023-04-25T01:07:44;10.90;99.90
8824;DHT22;4448;50.904;4.694;2023-04-25T01:10:10;10.90;99.90
8824;DHT22;4448;50.904;4.694;2023-04-25T01:12:36;10.90;99.90
8824;DHT22;4448;50.904;4.694;2023-04-25T01:15:02;10.90;99.90
8824;DHT22;4448;50.904;4.694;2023-04-25T01:17:29;10.90;99.90
8824;DHT22;4448;50.904;4.694;2023-04-25T01:19:54;10.90;99.90
8824;DHT22;4448;50.904;4.694;2023-04-25T01:22:20;10.90;99.90
8824;DHT22;4448;50.904;4.694;2023-04-25T01:24:46;10.90;99.90
8824;DHT22;4448;50.904;4.694;2023-04-25T01:27:12;10.90;99.90
8824;DHT22;4448;50.904;4.694;2023-04-25T01:29:38;10.90;99.90
8824;DHT22;4448;50.904;4.694;2023-04-25T01:32:05;10.90;99.90
8824;DHT22;4448;50.904;4.694;2023-04-25T01:34:31;10.90;99.90
8824;DHT22;4448;50.904;4.694;2023-04-25T01:36:59;10.90;99.90
8824;DHT22;4448;50.904;4.694;2023-04-25T01:39:25;10.90;99.90
8824;DHT22;4448;50.904;4.694;2023-04-25T01:41:51;10.90;99.90
8824;DHT22;4448;50.904;4.694;2023-04-25T01:44:16;10.90;99.90
8824;DHT22;4448;50.904;4.694;2023-04-25T01:46:42;10.90;99.90
8824;DHT22;4448;50.904;4.694;2023-04-25T01:49:08;10.90;99.90
8824;DHT22;4448;50.904;4.694;2023-04-25T01:51:34;10.90;99.90
8824;DHT22;4448;50.904;4.694;2023-04-25T01:54:00;10.90;99.90
8824;DHT22;4448;50.904;4.694;2023-04-25T01:56:30;10.80;99.90
8824;DHT22;4448;50.904;4.694;2023-04-25T01:58:57;10.80;99.90
8824;DHT22;4448;50.904;4.694;2023-04-25T02:01:23;10.80;99.90
8824;DHT22;4448;50.904;4.694;2023-04-25T02:03:48;10.80;99.90
8824;DHT22;4448;50.904;4.694;2023-04-25T02:06:14;10.80;99.90
8824;DHT22;4448;50.904;4.694;2023-04-25T02:08:40;10.80;99.90
8824;DHT22;4448;50.904;4.694;2023-04-25T02:11:05;10.80;99.90
8824;DHT22;4448;50.904;4.694;2023-04-25T02:13:31;10.80;99.90
8824;DHT22;4448;50.904;4.694;2023-04-25T02:15:57;10.80;99.90
8824;DHT22;4448;50.904;4.694;2023-04-25T02:18:23;10.70;99.90
8824;DHT22;4448;50.904;4.694;2023-04-25T02:20:48;10.70;99.90
8824;DHT22;4448;50.904;4.694;2023-04-25T02:23:14;10.70;99.90
8824;DHT22;4448;50.904;4.694;2023-04-25T02:25:44;10.70;99.90
8824;DHT22;4448;50.904;4.694;2023-04-25T02:28:10;10.70;99.90
8824;DHT22;4448;50.904;4.694;2023-04-25T02:30:36;10.70;99.90
8824;DHT22;4448;50.904;4.694;2023-04-25T02:33:02;10.70;99.90
8824;DHT22;4448;50.904;4.694;2023-04-25T02:35:27;10.70;99.90
8824;DHT22;4448;50.904;4.694;2023-04-25T02:37:53;10.70;99.90
8824;DHT22;4448;50.904;4.694;2023-04-25T02:40:19;10.60;99.90
8824;DHT22;4448;50.904;4.694;2023-04-25T02:42:45;10.60;99.90
8824;DHT22;4448;50.904;4.694;2023-04-25T02:45:11;10.60;99.90
8824;DHT22;4448;50.904;4.694;2023-04-25T02:47:37;10.60;99.90
8824;DHT22;4448;50.904;4.694;2023-04-25T02:50:03;10.60;99.90
8824;DHT22;4448;50.904;4.694;2023-04-25T02:52:29;10.60;99.90
8824;DHT22;4448;50.904;4.694;2023-04-25T02:54:55;10.60;99.90
8824;DHT22;4448;50.904;4.694;2023-04-25T02:57:21;10.60;99.90
8824;DHT22;4448;50.904;4.694;2023-04-25T02:59:46;10.60;99.90
8824;DHT22;4448;50.904;4.694;2023-04-25T03:02:12;10.60;99.90
8824;DHT22;4448;50.904;4.694;2023-04-25T03:04:38;10.60;99.90
8824;DHT22;4448;50.904;4.694;2023-04-25T03:07:04;10.50;99.90
8824;DHT22;4448;50.904;4.694;2023-04-25T03:09:29;10.50;99.90
8824;DHT22;4448;50.904;4.694;2023-04-25T03:11:55;10.50;99.90
8824;DHT22;4448;50.904;4.694;2023-04-25T03:14:21;10.50;99.90
8824;DHT22;4448;50.904;4.694;2023-04-25T03:16:46;10.50;99.90
8824;DHT22;4448;50.904;4.694;2023-04-25T03:19:12;10.50;99.90
8824;DHT22;4448;50.904;4.694;2023-04-25T03:21:38;10.50;99.90
8824;DHT22;4448;50.904;4.694;2023-04-25T03:24:04;10.50;99.90
8824;DHT22;4448;50.904;4.694;2023-04-25T03:26:30;10.50;99.90
8824;DHT22;4448;50.904;4.694;2023-04-25T03:28:56;10.50;99.90
8824;DHT22;4448;50.904;4.694;2023-04-25T03:31:22;10.50;99.90
8824;DHT22;4448;50.904;4.694;2023-04-25T03:33:48;10.50;99.90
8824;DHT22;4448;50.904;4.694;2023-04-25T03:36:13;10.40;99.90
8824;DHT22;4448;50.904;4.694;2023-04-25T03:38:39;10.40;99.90
8824;DHT22;4448;50.904;4.694;2023-04-25T03:41:06;10.40;99.90
8824;DHT22;4448;50.904;4.694;2023-04-25T03:43:32;10.40;99.90
8824;DHT22;4448;50.904;4.694;2023-04-25T03:45:58;10.40;99.90
8824;DHT22;4448;50.904;4.694;2023-04-25T03:48:24;10.40;99.90
8824;DHT22;4448;50.904;4.694;2023-04-25T03:50:52;10.40;99.90
8824;DHT22;4448;50.904;4.694;2023-04-25T03:53:17;10.30;99.90
8824;DHT22;4448;50.904;4.694;2023-04-25T03:55:43;10.30;99.90
8824;DHT22;4448;50.904;4.694;2023-04-25T03:58:09;10.30;99.90
8824;DHT22;4448;50.904;4.694;2023-04-25T04:00:35;10.30;99.90
8824;DHT22;4448;50.904;4.694;2023-04-25T04:03:01;10.30;99.90
8824;DHT22;4448;50.904;4.694;2023-04-25T04:05:27;10.20;99.90
8824;DHT22;4448;50.904;4.694;2023-04-25T04:07:54;10.20;99.90
8824;DHT22;4448;50.904;4.694;2023-04-25T04:10:20;10.20;99.90
8824;DHT22;4448;50.904;4.694;2023-04-25T04:12:46;10.20;99.90
8824;DHT22;4448;50.904;4.694;2023-04-25T04:15:12;10.20;99.90
8824;DHT22;4448;50.904;4.694;2023-04-25T04:17:38;10.20;99.90
8824;DHT22;4448;50.904;4.694;2023-04-25T04:20:04;10.20;99.90
8824;DHT22;4448;50.904;4.694;2023-04-25T04:22:31;10.20;99.90
8824;DHT22;4448;50.904;4.694;2023-04-25T04:24:57;10.20;99.90
8824;DHT22;4448;50.904;4.694;2023-04-25T04:27:23;10.20;99.90
8824;DHT22;4448;50.904;4.694;2023-04-25T04:29:49;10.20;99.90
8824;DHT22;4448;50.904;4.694;2023-04-25T04:32:17;10.20;99.90
8824;DHT22;4448;50.904;4.694;2023-04-25T04:34:43;10.20;99.90
8824;DHT22;4448;50.904;4.694;2023-04-25T04:37:09;10.20;99.90
8824;DHT22;4448;50.904;4.694;2023-04-25T04:39:35;10.20;99.90
8824;DHT22;4448;50.904;4.694;2023-04-25T04:42:02;10.20;99.90
8824;DHT22;4448;50.904;4.694;2023-04-25T04:44:29;10.20;99.90
8824;DHT22;4448;50.904;4.694;2023-04-25T04:46:58;10.20;99.90
8824;DHT22;4448;50.904;4.694;2023-04-25T04:49:24;10.20;99.90
8824;DHT22;4448;50.904;4.694;2023-04-25T04:51:49;10.20;99.90
8824;DHT22;4448;50.904;4.694;2023-04-25T04:54:15;10.20;99.90
8824;DHT22;4448;50.904;4.694;2023-04-25T04:56:41;10.20;99.90
8824;DHT22;4448;50.904;4.694;2023-04-25T04:59:07;10.10;99.90
8824;DHT22;4448;50.904;4.694;2023-04-25T05:01:33;10.10;99.90
8824;DHT22;4448;50.904;4.694;2023-04-25T05:04:01;10.10;99.90
8824;DHT22;4448;50.904;4.694;2023-04-25T05:06:28;10.10;99.90
8824;DHT22;4448;50.904;4.694;2023-04-25T05:08:56;10.10;99.90
8824;DHT22;4448;50.904;4.694;2023-04-25T05:11:23;10.10;99.90
8824;DHT22;4448;50.904;4.694;2023-04-25T05:13:51;10.10;99.90
8824;DHT22;4448;50.904;4.694;2023-04-25T05:16:16;10.10;99.90
8824;DHT22;4448;50.904;4.694;2023-04-25T05:18:42;10.10;99.90
8824;DHT22;4448;50.904;4.694;2023-04-25T05:21:08;10.10;99.90
8824;DHT22;4448;50.904;4.694;2023-04-25T05:23:33;10.10;99.90
8824;DHT22;4448;50.904;4.694;2023-04-25T05:25:59;10.10;99.90
8824;DHT22;4448;50.904;4.694;2023-04-25T05:28:25;10.10;99.90
8824;DHT22;4448;50.904;4.694;2023-04-25T05:30:51;10.10;99.90
8824;DHT22;4448;50.904;4.694;2023-04-25T05:33:18;10.10;99.90
8824;DHT22;4448;50.904;4.694;2023-04-25T05:35:44;10.10;99.90
8824;DHT22;4448;50.904;4.694;2023-04-25T05:38:10;10.10;99.90
8824;DHT22;4448;50.904;4.694;2023-04-25T05:40:36;10.10;99.90
8824;DHT22;4448;50.904;4.694;2023-04-25T05:43:02;10.10;99.90
8824;DHT22;4448;50.904;4.694;2023-04-25T05:45:27;10.10;99.90
8824;DHT22;4448;50.904;4.694;2023-04-25T05:47:53;10.10;99.90
8824;DHT22;4448;50.904;4.694;2023-04-25T05:50:19;10.10;99.90
8824;DHT22;4448;50.904;4.694;2023-04-25T05:52:44;10.10;99.90
8824;DHT22;4448;50.904;4.694;2023-04-25T05:55:10;10.30;99.90
8824;DHT22;4448;50.904;4.694;2023-04-25T05:57:36;10.00;99.90
8824;DHT22;4448;50.904;4.694;2023-04-25T06:00:01;10.10;99.90
8824;DHT22;4448;50.904;4.694;2023-04-25T06:02:28;10.10;99.90
8824;DHT22;4448;50.904;4.694;2023-04-25T06:04:54;10.10;99.90
8824;DHT22;4448;50.904;4.694;2023-04-25T06:07:19;10.10;99.90
8824;DHT22;4448;50.904;4.694;2023-04-25T06:09:46;10.10;99.90
8824;DHT22;4448;50.904;4.694;2023-04-25T06:12:11;10.10;99.90
8824;DHT22;4448;50.904;4.694;2023-04-25T06:14:37;10.10;99.90
8824;DHT22;4448;50.904;4.694;2023-04-25T06:17:03;10.20;99.90
8824;DHT22;4448;50.904;4.694;2023-04-25T06:19:34;10.20;99.90
8824;DHT22;4448;50.904;4.694;2023-04-25T06:22:01;10.20;99.90
8824;DHT22;4448;50.904;4.694;2023-04-25T06:24:27;10.20;99.90
8824;DHT22;4448;50.904;4.694;2023-04-25T06:26:53;10.20;99.90
8824;DHT22;4448;50.904;4.694;2023-04-25T06:29:18;10.30;99.90
8824;DHT22;4448;50.904;4.694;2023-04-25T06:31:44;10.30;99.90
8824;DHT22;4448;50.904;4.694;2023-04-25T06:34:10;10.30;99.90
8824;DHT22;4448;50.904;4.694;2023-04-25T06:36:35;10.30;99.90
8824;DHT22;4448;50.904;4.694;2023-04-25T06:39:01;10.30;99.90
8824;DHT22;4448;50.904;4.694;2023-04-25T06:41:27;10.30;99.90
8824;DHT22;4448;50.904;4.694;2023-04-25T06:43:53;10.40;99.90
8824;DHT22;4448;50.904;4.694;2023-04-25T06:46:19;10.40;99.90
8824;DHT22;4448;50.904;4.694;2023-04-25T06:48:45;10.40;99.90
8824;DHT22;4448;50.904;4.694;2023-04-25T06:51:10;10.40;99.90
8824;DHT22;4448;50.904;4.694;2023-04-25T06:53:36;10.40;99.90
8824;DHT22;4448;50.904;4.694;2023-04-25T06:56:02;10.40;99.90
8824;DHT22;4448;50.904;4.694;2023-04-25T06:58:28;10.50;99.90
8824;DHT22;4448;50.904;4.694;2023-04-25T07:00:54;10.50;99.90
8824;DHT22;4448;50.904;4.694;2023-04-25T07:03:20;10.50;99.90
8824;DHT22;4448;50.904;4.694;2023-04-25T07:05:46;10.50;99.90
8824;DHT22;4448;50.904;4.694;2023-04-25T07:08:11;10.50;99.90
8824;DHT22;4448;50.904;4.694;2023-04-25T07:10:37;10.50;99.90
8824;DHT22;4448;50.904;4.694;2023-04-25T07:13:03;10.50;99.90
8824;DHT22;4448;50.904;4.694;2023-04-25T07:15:29;10.50;99.90
8824;DHT22;4448;50.904;4.694;2023-04-25T07:17:55;10.50;99.90
8824;DHT22;4448;50.904;4.694;2023-04-25T07:20:20;10.50;99.90
8824;DHT22;4448;50.904;4.694;2023-04-25T07:22:46;10.50;99.90
8824;DHT22;4448;50.904;4.694;2023-04-25T07:25:12;10.50;99.90
8824;DHT22;4448;50.904;4.694;2023-04-25T07:27:37;10.50;99.90
8824;DHT22;4448;50.904;4.694;2023-04-25T07:30:04;10.60;99.90
8824;DHT22;4448;50.904;4.694;2023-04-25T07:32:29;10.60;99.90
8824;DHT22;4448;50.904;4.694;2023-04-25T07:34:55;10.60;99.90
8824;DHT22;4448;50.904;4.694;2023-04-25T07:37:21;10.60;99.90
8824;DHT22;4448;50.904;4.694;2023-04-25T07:39:47;10.70;99.90
8824;DHT22;4448;50.904;4.694;2023-04-25T07:42:13;10.70;99.90
8824;DHT22;4448;50.904;4.694;2023-04-25T07:44:38;10.70;99.90
8824;DHT22;4448;50.904;4.694;2023-04-25T07:47:09;10.70;99.90
8824;DHT22;4448;50.904;4.694;2023-04-25T07:49:36;10.70;99.90
8824;DHT22;4448;50.904;4.694;2023-04-25T07:52:03;10.70;99.90
8824;DHT22;4448;50.904;4.694;2023-04-25T07:54:29;10.80;99.90
8824;DHT22;4448;50.904;4.694;2023-04-25T07:56:55;10.80;99.90
8824;DHT22;4448;50.904;4.694;2023-04-25T07:59:21;10.80;99.90
8824;DHT22;4448;50.904;4.694;2023-04-25T08:01:47;10.80;99.90
8824;DHT22;4448;50.904;4.694;2023-04-25T08:04:13;10.90;99.90
8824;DHT22;4448;50.904;4.694;2023-04-25T08:06:39;10.90;99.90
8824;DHT22;4448;50.904;4.694;2023-04-25T08:09:06;10.90;99.90
8824;DHT22;4448;50.904;4.694;2023-04-25T08:11:32;10.90;99.90
8824;DHT22;4448;50.904;4.694;2023-04-25T08:13:57;10.90;99.90
8824;DHT22;4448;50.904;4.694;2023-04-25T08:16:23;10.80;99.90
8824;DHT22;4448;50.904;4.694;2023-04-25T08:18:50;10.80;99.90
8824;DHT22;4448;50.904;4.694;2023-04-25T08:21:16;10.80;99.90
8824;DHT22;4448;50.904;4.694;2023-04-25T08:23:41;10.80;99.90
8824;DHT22;4448;50.904;4.694;2023-04-25T08:26:07;10.80;99.90
8824;DHT22;4448;50.904;4.694;2023-04-25T08:28:33;10.80;99.90
8824;DHT22;4448;50.904;4.694;2023-04-25T08:30:59;10.80;99.90
8824;DHT22;4448;50.904;4.694;2023-04-25T08:33:27;10.70;99.90
8824;DHT22;4448;50.904;4.694;2023-04-25T08:35:54;10.70;99.90
8824;DHT22;4448;50.904;4.694;2023-04-25T08:38:19;10.70;99.90
8824;DHT22;4448;50.904;4.694;2023-04-25T08:40:49;10.70;99.90
8824;DHT22;4448;50.904;4.694;2023-04-25T08:43:18;10.70;99.90
8824;DHT22;4448;50.904;4.694;2023-04-25T08:45:45;10.70;99.90
8824;DHT22;4448;50.904;4.694;2023-04-25T08:48:13;10.70;99.90
8824;DHT22;4448;50.904;4.694;2023-04-25T08:50:52;10.70;99.90
8824;DHT22;4448;50.904;4.694;2023-04-25T08:53:26;10.70;99.90
8824;DHT22;4448;50.904;4.694;2023-04-25T08:55:54;10.70;99.90
8824;DHT22;4448;50.904;4.694;2023-04-25T08:58:20;10.80;99.90
8824;DHT22;4448;50.904;4.694;2023-04-25T09:00:47;10.80;99.90
8824;DHT22;4448;50.904;4.694;2023-04-25T09:03:13;10.80;99.90
8824;DHT22;4448;50.904;4.694;2023-04-25T09:05:40;10.90;99.90
8824;DHT22;4448;50.904;4.694;2023-04-25T09:08:06;11.00;99.90
8824;DHT22;4448;50.904;4.694;2023-04-25T09:10:32;11.10;99.90
8824;DHT22;4448;50.904;4.694;2023-04-25T09:13:09;11.20;99.90
8824;DHT22;4448;50.904;4.694;2023-04-25T09:15:50;11.40;99.90
8824;DHT22;4448;50.904;4.694;2023-04-25T09:21:09;11.60;99.90
8824;DHT22;4448;50.904;4.694;2023-04-25T09:23:46;11.70;99.90
8824;DHT22;4448;50.904;4.694;2023-04-25T09:26:19;11.70;99.90
8824;DHT22;4448;50.904;4.694;2023-04-25T09:28:45;11.60;99.90
8824;DHT22;4448;50.904;4.694;2023-04-25T09:31:21;11.60;99.90
8824;DHT22;4448;50.904;4.694;2023-04-25T09:33:47;11.50;99.90
8824;DHT22;4448;50.904;4.694;2023-04-25T09:36:13;11.50;99.90
8824;DHT22;4448;50.904;4.694;2023-04-25T09:38:43;11.40;99.90
8824;DHT22;4448;50.904;4.694;2023-04-25T09:41:10;11.40;99.90
8824;DHT22;4448;50.904;4.694;2023-04-25T09:43:37;11.40;99.90
8824;DHT22;4448;50.904;4.694;2023-04-25T09:46:10;11.40;99.90
8824;DHT22;4448;50.904;4.694;2023-04-25T09:48:37;11.30;99.90
8824;DHT22;4448;50.904;4.694;2023-04-25T09:51:10;11.30;99.90
8824;DHT22;4448;50.904;4.694;2023-04-25T09:53:39;11.20;99.90
8824;DHT22;4448;50.904;4.694;2023-04-25T09:56:07;11.20;99.90
8824;DHT22;4448;50.904;4.694;2023-04-25T09:58:34;11.20;99.90
8824;DHT22;4448;50.904;4.694;2023-04-25T10:01:02;11.20;99.90
8824;DHT22;4448;50.904;4.694;2023-04-25T10:03:32;11.20;99.90
8824;DHT22;4448;50.904;4.694;2023-04-25T10:06:03;11.20;99.90
8824;DHT22;4448;50.904;4.694;2023-04-25T10:08:35;11.30;99.90
8824;DHT22;4448;50.904;4.694;2023-04-25T10:11:03;11.40;99.90
8824;DHT22;4448;50.904;4.694;2023-04-25T10:13:32;11.70;99.90
8824;DHT22;4448;50.904;4.694;2023-04-25T10:15:59;11.80;99.90
8824;DHT22;4448;50.904;4.694;2023-04-25T10:18:29;12.00;99.90
8824;DHT22;4448;50.904;4.694;2023-04-25T10:21:04;12.20;99.90
8824;DHT22;4448;50.904;4.694;2023-04-25T10:23:31;12.30;99.90
8824;DHT22;4448;50.904;4.694;2023-04-25T10:25:57;12.40;99.90
8824;DHT22;4448;50.904;4.694;2023-04-25T10:28:24;12.40;99.90
8824;DHT22;4448;50.904;4.694;2023-04-25T10:31:03;12.40;99.90
8824;DHT22;4448;50.904;4.694;2023-04-25T10:33:40;12.40;99.90
8824;DHT22;4448;50.904;4.694;2023-04-25T10:36:17;12.30;99.90
8824;DHT22;4448;50.904;4.694;2023-04-25T10:38:44;12.30;99.90
8824;DHT22;4448;50.904;4.694;2023-04-25T10:41:11;12.30;99.90
8824;DHT22;4448;50.904;4.694;2023-04-25T10:43:42;12.20;99.90
8824;DHT22;4448;50.904;4.694;2023-04-25T10:46:27;12.30;99.90
8824;DHT22;4448;50.904;4.694;2023-04-25T10:48:59;12.30;99.90
8824;DHT22;4448;50.904;4.694;2023-04-25T10:51:31;12.50;99.90
8824;DHT22;4448;50.904;4.694;2023-04-25T10:53:58;12.70;99.90
8824;DHT22;4448;50.904;4.694;2023-04-25T10:56:35;12.90;99.90
8824;DHT22;4448;50.904;4.694;2023-04-25T10:59:15;13.10;99.90
8824;DHT22;4448;50.904;4.694;2023-04-25T11:01:43;13.20;99.90
8824;DHT22;4448;50.904;4.694;2023-04-25T11:04:30;13.20;99.90
8824;DHT22;4448;50.904;4.694;2023-04-25T11:09:28;13.20;99.90
8824;DHT22;4448;50.904;4.694;2023-04-25T11:11:54;13.10;99.90
8824;DHT22;4448;50.904;4.694;2023-04-25T11:14:21;13.00;99.90
8824;DHT22;4448;50.904;4.694;2023-04-25T11:16:47;13.00;99.90
8824;DHT22;4448;50.904;4.694;2023-04-25T11:19:13;12.90;99.90
8824;DHT22;4448;50.904;4.694;2023-04-25T11:21:38;12.80;99.90
8824;DHT22;4448;50.904;4.694;2023-04-25T11:24:04;12.70;99.90
8824;DHT22;4448;50.904;4.694;2023-04-25T11:26:30;12.60;99.90
8824;DHT22;4448;50.904;4.694;2023-04-25T11:28:59;12.60;99.90
8824;DHT22;4448;50.904;4.694;2023-04-25T11:31:29;12.50;99.90
8824;DHT22;4448;50.904;4.694;2023-04-25T11:33:58;12.50;99.90
8824;DHT22;4448;50.904;4.694;2023-04-25T11:36:24;12.50;99.90
8824;DHT22;4448;50.904;4.694;2023-04-25T11:38:53;12.40;99.90
8824;DHT22;4448;50.904;4.694;2023-04-25T11:41:20;12.50;99.90
8824;DHT22;4448;50.904;4.694;2023-04-25T11:43:47;12.50;99.90
8824;DHT22;4448;50.904;4.694;2023-04-25T11:46:15;12.50;99.90
8824;DHT22;4448;50.904;4.694;2023-04-25T11:48:42;12.60;99.90
8824;DHT22;4448;50.904;4.694;2023-04-25T11:51:08;12.60;99.90
8824;DHT22;4448;50.904;4.694;2023-04-25T11:53:35;12.60;99.90
8824;DHT22;4448;50.904;4.694;2023-04-25T11:56:01;12.60;99.90
8824;DHT22;4448;50.904;4.694;2023-04-25T11:58:28;12.70;99.90
8824;DHT22;4448;50.904;4.694;2023-04-25T12:00:53;12.80;99.90
8824;DHT22;4448;50.904;4.694;2023-04-25T12:03:19;12.80;99.90
8824;DHT22;4448;50.904;4.694;2023-04-25T12:05:46;12.70;99.90
8824;DHT22;4448;50.904;4.694;2023-04-25T12:08:15;12.70;99.90
8824;DHT22;4448;50.904;4.694;2023-04-25T12:10:43;12.60;99.90
8824;DHT22;4448;50.904;4.694;2023-04-25T12:13:25;12.60;99.90
8824;DHT22;4448;50.904;4.694;2023-04-25T12:15:54;12.60;99.90
8824;DHT22;4448;50.904;4.694;2023-04-25T12:18:23;12.60;99.90
8824;DHT22;4448;50.904;4.694;2023-04-25T12:20:49;12.70;99.90
8824;DHT22;4448;50.904;4.694;2023-04-25T12:23:15;12.80;99.90
8824;DHT22;4448;50.904;4.694;2023-04-25T12:25:42;12.90;99.90
8824;DHT22;4448;50.904;4.694;2023-04-25T12:28:20;12.90;99.90
8824;DHT22;4448;50.904;4.694;2023-04-25T12:31:02;13.00;99.90
8824;DHT22;4448;50.904;4.694;2023-04-25T12:33:38;13.10;99.90
8824;DHT22;4448;50.904;4.694;2023-04-25T12:36:05;13.20;99.90
8824;DHT22;4448;50.904;4.694;2023-04-25T12:38:41;13.40;99.90
8824;DHT22;4448;50.904;4.694;2023-04-25T12:41:07;13.40;99.90
8824;DHT22;4448;50.904;4.694;2023-04-25T12:43:33;13.50;99.90
8824;DHT22;4448;50.904;4.694;2023-04-25T12:46:00;13.40;99.90
8824;DHT22;4448;50.904;4.694;2023-04-25T12:48:25;13.40;99.90
8824;DHT22;4448;50.904;4.694;2023-04-25T12:50:52;13.50;99.90
8824;DHT22;4448;50.904;4.694;2023-04-25T12:53:19;13.70;99.90
8824;DHT22;4448;50.904;4.694;2023-04-25T12:55:45;13.80;99.90
8824;DHT22;4448;50.904;4.694;2023-04-25T12:58:13;14.00;99.90
8824;DHT22;4448;50.904;4.694;2023-04-25T13:00:39;14.20;99.90
8824;DHT22;4448;50.904;4.694;2023-04-25T13:03:04;14.40;99.90
8824;DHT22;4448;50.904;4.694;2023-04-25T13:05:30;14.50;99.90
8824;DHT22;4448;50.904;4.694;2023-04-25T13:07:56;14.50;99.90
8824;DHT22;4448;50.904;4.694;2023-04-25T13:10:22;14.50;99.90
8824;DHT22;4448;50.904;4.694;2023-04-25T13:12:48;14.50;99.90
8824;DHT22;4448;50.904;4.694;2023-04-25T13:15:14;14.50;99.90
8824;DHT22;4448;50.904;4.694;2023-04-25T13:17:41;14.30;99.90
8824;DHT22;4448;50.904;4.694;2023-04-25T13:20:07;14.30;99.90
8824;DHT22;4448;50.904;4.694;2023-04-25T13:22:36;14.30;99.90
8824;DHT22;4448;50.904;4.694;2023-04-25T13:25:03;14.30;99.90
8824;DHT22;4448;50.904;4.694;2023-04-25T13:27:29;14.30;99.90
8824;DHT22;4448;50.904;4.694;2023-04-25T13:29:55;14.40;99.90
8824;DHT22;4448;50.904;4.694;2023-04-25T13:32:21;14.40;99.90
8824;DHT22;4448;50.904;4.694;2023-04-25T13:34:47;14.40;99.90
8824;DHT22;4448;50.904;4.694;2023-04-25T13:37:12;14.40;99.90
8824;DHT22;4448;50.904;4.694;2023-04-25T13:39:38;14.30;99.90
8824;DHT22;4448;50.904;4.694;2023-04-25T13:42:04;14.30;99.90
8824;DHT22;4448;50.904;4.694;2023-04-25T13:44:29;14.20;99.90
8824;DHT22;4448;50.904;4.694;2023-04-25T13:46:55;14.20;99.90
8824;DHT22;4448;50.904;4.694;2023-04-25T13:49:21;14.20;99.90
8824;DHT22;4448;50.904;4.694;2023-04-25T13:51:48;14.10;99.90
8824;DHT22;4448;50.904;4.694;2023-04-25T13:54:13;14.00;99.90
8824;DHT22;4448;50.904;4.694;2023-04-25T13:56:39;14.00;99.90
8824;DHT22;4448;50.904;4.694;2023-04-25T13:59:07;14.00;99.90
8824;DHT22;4448;50.904;4.694;2023-04-25T14:01:33;13.90;99.90
8824;DHT22;4448;50.904;4.694;2023-04-25T14:04:01;13.90;99.90
8824;DHT22;4448;50.904;4.694;2023-04-25T14:06:27;14.00;99.90
8824;DHT22;4448;50.904;4.694;2023-04-25T14:08:53;14.10;99.90
8824;DHT22;4448;50.904;4.694;2023-04-25T14:11:19;14.20;99.90
8824;DHT22;4448;50.904;4.694;2023-04-25T14:13:45;14.20;99.90
8824;DHT22;4448;50.904;4.694;2023-04-25T14:16:11;14.30;99.90
8824;DHT22;4448;50.904;4.694;2023-04-25T14:18:37;14.40;99.90
8824;DHT22;4448;50.904;4.694;2023-04-25T14:21:02;14.50;99.90
8824;DHT22;4448;50.904;4.694;2023-04-25T14:23:28;14.60;99.90
8824;DHT22;4448;50.904;4.694;2023-04-25T14:25:54;14.70;99.90
8824;DHT22;4448;50.904;4.694;2023-04-25T14:28:20;14.70;99.90
8824;DHT22;4448;50.904;4.694;2023-04-25T14:30:45;14.80;99.90
8824;DHT22;4448;50.904;4.694;2023-04-25T14:33:11;14.80;99.90
8824;DHT22;4448;50.904;4.694;2023-04-25T14:35:37;14.80;99.90
8824;DHT22;4448;50.904;4.694;2023-04-25T14:38:03;14.90;99.90
8824;DHT22;4448;50.904;4.694;2023-04-25T14:40:29;14.90;99.90
8824;DHT22;4448;50.904;4.694;2023-04-25T14:42:55;14.90;99.90
8824;DHT22;4448;50.904;4.694;2023-04-25T14:45:20;14.80;99.90
8824;DHT22;4448;50.904;4.694;2023-04-25T14:47:46;14.80;99.90
8824;DHT22;4448;50.904;4.694;2023-04-25T14:50:12;14.70;99.90
8824;DHT22;4448;50.904;4.694;2023-04-25T14:52:37;14.60;99.90
8824;DHT22;4448;50.904;4.694;2023-04-25T14:55:03;14.60;99.90
8824;DHT22;4448;50.904;4.694;2023-04-25T14:57:34;14.50;99.90
8824;DHT22;4448;50.904;4.694;2023-04-25T15:00:00;14.50;99.90
8824;DHT22;4448;50.904;4.694;2023-04-25T15:02:28;14.40;99.90
8824;DHT22;4448;50.904;4.694;2023-04-25T15:04:54;14.30;99.90
8824;DHT22;4448;50.904;4.694;2023-04-25T15:07:21;14.20;99.90
8824;DHT22;4448;50.904;4.694;2023-04-25T15:09:48;14.20;99.90
8824;DHT22;4448;50.904;4.694;2023-04-25T15:12:13;14.10;99.90
8824;DHT22;4448;50.904;4.694;2023-04-25T15:14:40;14.10;99.90
8824;DHT22;4448;50.904;4.694;2023-04-25T15:17:05;14.00;99.90
8824;DHT22;4448;50.904;4.694;2023-04-25T15:19:31;14.00;99.90
8824;DHT22;4448;50.904;4.694;2023-04-25T15:21:58;13.90;99.90
8824;DHT22;4448;50.904;4.694;2023-04-25T15:24:26;13.90;99.90
8824;DHT22;4448;50.904;4.694;2023-04-25T15:26:52;13.80;99.90
8824;DHT22;4448;50.904;4.694;2023-04-25T15:29:18;13.80;99.90
8824;DHT22;4448;50.904;4.694;2023-04-25T15:31:44;13.70;99.90
8824;DHT22;4448;50.904;4.694;2023-04-25T15:34:10;13.60;99.90
8824;DHT22;4448;50.904;4.694;2023-04-25T15:36:36;13.60;99.90
8824;DHT22;4448;50.904;4.694;2023-04-25T15:39:02;13.50;99.90
8824;DHT22;4448;50.904;4.694;2023-04-25T15:41:28;13.50;99.90
8824;DHT22;4448;50.904;4.694;2023-04-25T15:43:59;13.40;99.90
8824;DHT22;4448;50.904;4.694;2023-04-25T15:46:29;13.40;99.90
8824;DHT22;4448;50.904;4.694;2023-04-25T15:48:55;13.30;99.90
8824;DHT22;4448;50.904;4.694;2023-04-25T15:51:21;13.30;99.90
8824;DHT22;4448;50.904;4.694;2023-04-25T15:53:47;13.30;99.90
8824;DHT22;4448;50.904;4.694;2023-04-25T15:56:12;13.30;99.90
8824;DHT22;4448;50.904;4.694;2023-04-25T15:58:38;13.20;99.90
8824;DHT22;4448;50.904;4.694;2023-04-25T16:01:04;13.20;99.90
8824;DHT22;4448;50.904;4.694;2023-04-25T16:03:31;13.10;99.90
8824;DHT22;4448;50.904;4.694;2023-04-25T16:05:56;13.10;99.90